Albany, NY

5:57 PM EDT on July 25, 2016 (GMT -0400)
APRSWXNET | Change Station
CLOSE
Current Station
Personal Weather Station
Location: Albany, NY
Elevation: 420 ft
Nearby Weather Stations

Elev 420 ft 42.67 °N, 73.71 °W | Updated 28 minutes ago

Overcast
Overcast
81 °F
Feels Like 85 °F
N
0
Wind Variable Wind from WSW
Gusts 0.0 mph

Today
High -- | Low -- °F
--% Chance of Precip.
Yesterday
High -- | Low -- °F
Precip. -- in
5:40 AM 8:22 PM
Waning Gibbous, 62% visible
Pressure 29.81 in
Visibility 10.0 miles
Clouds Scattered Clouds 5000 ft
Scattered Clouds 7000 ft
Mostly Cloudy 9500 ft
Overcast 14000 ft
Heat Index 85 °F
Dew Point 72 °F
Humidity 75%
Rainfall -999.00 in
Snow Depth Not available.
UV 1 out of 12
Pollen 5.80 out of 12
Ozone Good
PM2.5 Moderate
Flu Activity Not available.
METAR KALB 252151Z 19006KT 10SM -RA SCT050 SCT070 BKN095 OVC140 27/23 A2982 RMK AO2 RAB36 SLP095 P0000 T02670228

More Conditions Fewer Conditions

Pressure 29.81 in
Visibility 10.0 miles
Clouds Scattered Clouds 5000 ft
Scattered Clouds 7000 ft
Mostly Cloudy 9500 ft
Overcast 14000 ft
Heat Index 85 °F
Dew Point 72 °F
Humidity 75%
Rainfall -999.00 in
Snow Depth Not available.
UV 1 out of 12
Pollen 5.80 out of 12
Ozone Good
PM2.5 Moderate
Flu Activity Not available.
METAR KALB 252151Z 19006KT 10SM -RA SCT050 SCT070 BKN095 OVC140 27/23 A2982 RMK AO2 RAB36 SLP095 P0000 T02670228

More Conditions Fewer Conditions

10-Day Weather Forecast

Almanac

Astronomy

Jul. 25, 2016 Rise Set
Actual Time 5:40 AM EDT 8:22 PM EDT
Civil Twilight 5:07 AM EDT 8:54 PM EDT
Nautical Twilight 4:26 AM EDT 9:35 PM EDT
Astronomical Twilight 3:39 AM EDT 10:22 PM EDT
Moon 11:46 PM EDT 11:55 AM EDT
Length of Visible Light 15h 47m
Length of Day
14h 42m
Tomorrow will be 1m 59s shorter.
Waning Gibbous, 62% of the Moon is Illuminated
Today
Waning Gibbous
Jul 26
Last Quarter
Aug 2
New
Aug 10
First Quarter
Aug 18
Full

Today's Extremes

State Highs State Lows

Community

WunderPhotos

Upload Photos

1,927,424 photos uploaded!

Nearby

Air Quality

  Air Quality AQ Index Pollutant
Yesterday Good
OZONE
Yesterday Good
PM2.5
Current Moderate
PM2.5
Current Good
OZONE
Monday Good
PM2.5
Monday Good
OZONE
Tuesday Good
OZONE
Tuesday Good
PM2.5

Snow Depth

Station Depth Elevation
No new snow has been reported.

Earthquake Activity

City Distance Mag. Time & Date
No recent earthquake activity has been reported nearby.
Minimum magnitude displayed is 2.5.

Coastal Water Temperatures

Place Temperature
No Stations Reporting

Nearby Weather Stations